createdAt,value
2018-05-09T00:00:59.376Z,94418.89
2018-05-09T00:03:27.365Z,94419.75
2018-05-09T00:05:55.419Z,94413.60
2018-05-09T00:08:23.466Z,94422.05
2018-05-09T00:10:51.489Z,94419.97
2018-05-09T00:13:19.481Z,94420.49
2018-05-09T00:15:47.496Z,94426.24
2018-05-09T00:18:15.526Z,94423.59
2018-05-09T00:20:43.575Z,94428.25
2018-05-09T00:23:11.871Z,94429.75
2018-05-09T00:25:39.809Z,94426.02
2018-05-09T00:28:07.859Z,94432.66
2018-05-09T00:30:35.892Z,94430.14
2018-05-09T00:33:03.915Z,94431.88
2018-05-09T00:35:31.893Z,94437.27
2018-05-09T00:37:59.913Z,94433.75
2018-05-09T00:40:27.900Z,94437.13
2018-05-09T00:42:55.928Z,94441.28
2018-05-09T00:45:23.972Z,94438.07
2018-05-09T00:47:51.932Z,94432.06
2018-05-09T00:50:20.004Z,94430.32
2018-05-09T00:52:47.922Z,94441.06
2018-05-09T00:55:15.925Z,94429.57
2018-05-09T00:57:43.980Z,94432.14
2018-05-09T01:00:11.998Z,94426.25
2018-05-09T01:02:40.020Z,94422.84
2018-05-09T01:05:07.975Z,94420.02
2018-05-09T01:07:35.991Z,94419.00
2018-05-09T01:10:04.065Z,94422.48
2018-05-09T01:12:32.019Z,94424.15
2018-05-09T01:15:00.064Z,94422.61
2018-05-09T01:17:28.080Z,94423.78
2018-05-09T01:19:56.078Z,94419.63
2018-05-09T01:22:24.081Z,94423.01
2018-05-09T01:24:52.670Z,94427.22
2018-05-09T01:27:20.671Z,94434.70
2018-05-09T01:29:48.714Z,94433.31
2018-05-09T01:32:16.729Z,94425.33
2018-05-09T01:34:44.728Z,94429.84
2018-05-09T01:37:12.724Z,94431.31
2018-05-09T01:39:40.722Z,94436.03
2018-05-09T01:42:08.720Z,94444.71
2018-05-09T01:44:36.747Z,94448.12
2018-05-09T01:47:04.711Z,94441.44
2018-05-09T01:49:32.709Z,94434.59
2018-05-09T01:52:00.718Z,94430.67
2018-05-09T01:54:28.823Z,94429.71
2018-05-09T01:56:56.844Z,94428.52
2018-05-09T01:59:24.843Z,94424.92
2018-05-09T02:01:52.862Z,94423.73
2018-05-09T02:04:20.861Z,94422.02
2018-05-09T02:06:48.877Z,94422.52
2018-05-09T02:09:16.917Z,94418.14
2018-05-09T02:11:44.890Z,94422.13
2018-05-09T02:14:12.911Z,94424.81
2018-05-09T02:16:41.007Z,94424.00
2018-05-09T02:19:09.004Z,94436.03
2018-05-09T02:21:36.999Z,94436.48
2018-05-09T02:24:04.946Z,94439.03
2018-05-09T02:26:33.523Z,94444.35
2018-05-09T02:29:01.643Z,94440.16
2018-05-09T02:31:29.646Z,94442.98
2018-05-09T02:33:57.661Z,94445.82
2018-05-09T02:36:25.680Z,94445.63
2018-05-09T02:38:53.619Z,94447.56
2018-05-09T02:41:21.662Z,94440.41
2018-05-09T02:43:49.772Z,94440.92
2018-05-09T02:46:17.720Z,94437.91
2018-05-09T02:48:45.751Z,94439.47
2018-05-09T02:51:13.768Z,94439.34
2018-05-09T02:53:41.805Z,94445.88
2018-05-09T02:56:09.792Z,94443.17
2018-05-09T02:58:37.805Z,94438.27
2018-05-09T03:01:05.779Z,94442.89
2018-05-09T03:03:33.808Z,94445.42
2018-05-09T03:06:01.712Z,94446.06
2018-05-09T03:08:29.614Z,94443.48
2018-05-09T03:10:57.584Z,94427.23
2018-05-09T03:13:25.602Z,94447.35
2018-05-09T03:15:53.618Z,94448.01
2018-05-09T03:18:21.671Z,94456.48
2018-05-09T03:20:49.706Z,94447.55
2018-05-09T03:23:17.719Z,94455.08
2018-05-09T03:25:45.655Z,94454.14
2018-05-09T03:28:14.224Z,94450.50
2018-05-09T03:30:42.208Z,94455.36
2018-05-09T03:33:10.232Z,94459.95
2018-05-09T03:35:38.221Z,94463.69
2018-05-09T03:38:06.207Z,94465.67
2018-05-09T03:40:34.162Z,94464.25
2018-05-09T03:43:02.172Z,94462.11
2018-05-09T03:45:30.129Z,94463.23
2018-05-09T03:47:58.155Z,94473.44
2018-05-09T03:50:26.093Z,94474.95
2018-05-09T03:52:54.052Z,94474.98
2018-05-09T03:55:22.102Z,94468.44
2018-05-09T03:57:50.111Z,94476.44
2018-05-09T04:00:18.143Z,94484.45
2018-05-09T04:02:57.946Z,94483.95
2018-05-09T04:05:37.794Z,94483.80
2018-05-09T04:08:18.681Z,94492.30
2018-05-09T04:10:46.690Z,94481.03
2018-05-09T04:13:14.792Z,94490.47
2018-05-09T04:15:42.809Z,94491.00
2018-05-09T04:18:11.164Z,94495.49
2018-05-09T04:20:39.272Z,94499.63
2018-05-09T04:23:07.210Z,94499.95
2018-05-09T04:25:35.191Z,94494.53
2018-05-09T04:28:03.181Z,94492.34
2018-05-09T04:30:31.366Z,94495.48
2018-05-09T04:32:59.445Z,94499.08
2018-05-09T04:35:27.490Z,94494.61
2018-05-09T04:37:55.465Z,94488.77
2018-05-09T04:40:23.444Z,94498.19
2018-05-09T04:42:51.445Z,94476.77
2018-05-09T04:45:19.498Z,94492.62
2018-05-09T04:47:47.504Z,94483.11
2018-05-09T04:50:15.512Z,94403.30
2018-05-09T04:52:43.510Z,94477.28
2018-05-09T04:55:11.511Z,94481.30
2018-05-09T04:57:39.521Z,94470.73
2018-05-09T05:00:07.558Z,94468.92
2018-05-09T05:02:35.541Z,94473.22
2018-05-09T05:05:03.585Z,94476.53
2018-05-09T05:07:31.605Z,94474.66
2018-05-09T05:09:59.613Z,94478.66
2018-05-09T05:12:27.630Z,94478.03
2018-05-09T05:14:55.594Z,94479.54
2018-05-09T05:17:23.617Z,94470.25
2018-05-09T05:19:51.611Z,94475.84
2018-05-09T05:22:19.672Z,94478.78
2018-05-09T05:24:47.702Z,94478.08
2018-05-09T05:27:15.684Z,94483.16
2018-05-09T05:29:43.766Z,94483.52
2018-05-09T05:32:12.117Z,94487.48
2018-05-09T05:34:40.168Z,94484.52
2018-05-09T05:37:08.186Z,94480.73
2018-05-09T05:39:36.155Z,94481.63
2018-05-09T05:42:04.155Z,94477.98
2018-05-09T05:44:32.154Z,94483.28
2018-05-09T05:47:00.272Z,94483.89
2018-05-09T05:49:28.434Z,94482.81
2018-05-09T05:51:56.464Z,94483.73
2018-05-09T05:54:24.561Z,94482.38
2018-05-09T05:56:52.537Z,94483.33
2018-05-09T05:59:20.581Z,94485.46
2018-05-09T06:01:48.667Z,94487.12
2018-05-09T06:04:16.671Z,94471.85
2018-05-09T06:06:44.679Z,94478.05
2018-05-09T06:09:12.685Z,94476.16
2018-05-09T06:11:40.738Z,94483.13
2018-05-09T06:14:08.673Z,94482.53
2018-05-09T06:16:36.661Z,94479.24
2018-05-09T06:19:04.726Z,94480.30
2018-05-09T06:21:32.771Z,94479.59
2018-05-09T06:24:00.885Z,94469.88
2018-05-09T06:26:28.887Z,94466.26
2018-05-09T06:28:56.895Z,94464.72
2018-05-09T06:31:24.935Z,94464.60
2018-05-09T06:33:53.191Z,94464.61
2018-05-09T06:36:21.272Z,94470.29
2018-05-09T06:38:49.281Z,94463.46
2018-05-09T06:41:17.386Z,94438.64
2018-05-09T06:43:45.482Z,94463.22
2018-05-09T06:46:13.511Z,94463.69
2018-05-09T06:48:41.506Z,94462.99
2018-05-09T06:51:09.464Z,94449.77
2018-05-09T06:53:37.433Z,94458.86
2018-05-09T06:56:05.438Z,94461.95
2018-05-09T06:58:33.392Z,94463.66
2018-05-09T07:01:01.494Z,94465.81
2018-05-09T07:03:29.595Z,94455.16
2018-05-09T07:05:57.615Z,94457.48
2018-05-09T07:08:25.609Z,94452.54
2018-05-09T07:10:53.701Z,94450.99
2018-05-09T07:13:21.737Z,94449.48
2018-05-09T07:15:49.764Z,94443.97
2018-05-09T07:18:17.702Z,94441.67
2018-05-09T07:20:45.669Z,94439.09
2018-05-09T07:23:13.801Z,94431.34
2018-05-09T07:25:41.717Z,94440.77
2018-05-09T07:28:09.746Z,94437.05
2018-05-09T07:30:37.764Z,94438.25
2018-05-09T07:33:05.742Z,94440.73
2018-05-09T07:35:34.174Z,94433.78
2018-05-09T07:38:02.185Z,94434.92
2018-05-09T07:40:30.254Z,94428.70
2018-05-09T07:42:58.247Z,94433.15
2018-05-09T07:45:26.277Z,94429.27
2018-05-09T07:47:54.346Z,94430.70
2018-05-09T07:50:22.314Z,94424.02
2018-05-09T07:52:50.347Z,94428.15
2018-05-09T07:55:18.357Z,94421.51
2018-05-09T07:57:46.392Z,94430.77
2018-05-09T08:00:14.408Z,94425.84
2018-05-09T08:02:42.441Z,94418.34
2018-05-09T08:05:10.417Z,94418.16
2018-05-09T08:07:38.437Z,94416.63
2018-05-09T08:10:06.508Z,94400.17
2018-05-09T08:12:34.439Z,94411.16
2018-05-09T08:15:02.530Z,94412.34
2018-05-09T08:17:30.516Z,94406.16
2018-05-09T08:19:58.575Z,94413.09
2018-05-09T08:22:26.549Z,94409.84
2018-05-09T08:24:54.590Z,94413.42
2018-05-09T08:27:22.618Z,94415.25
2018-05-09T08:29:50.691Z,94413.44
2018-05-09T08:32:18.843Z,94405.14
2018-05-09T08:34:46.956Z,94406.13
2018-05-09T08:37:15.329Z,94410.14
2018-05-09T08:39:43.414Z,94408.55
2018-05-09T08:42:11.450Z,94405.87
2018-05-09T08:44:39.414Z,94400.99
2018-05-09T08:47:07.411Z,94397.47
2018-05-09T08:49:36.878Z,94394.02
2018-05-09T08:52:04.944Z,94389.13
2018-05-09T08:54:32.950Z,94386.15
2018-05-09T08:57:00.981Z,94383.24
2018-05-09T08:59:28.970Z,94379.95
2018-05-09T09:01:57.001Z,94377.79
2018-05-09T09:04:25.066Z,94376.62
2018-05-09T09:06:53.030Z,94366.52
2018-05-09T09:09:21.030Z,94370.30
2018-05-09T09:11:49.172Z,94365.73
2018-05-09T09:14:17.270Z,94357.99
2018-05-09T09:16:45.351Z,94355.56
2018-05-09T09:19:13.452Z,94358.31
2018-05-09T09:21:41.465Z,94355.22
2018-05-09T09:24:09.535Z,94355.88
2018-05-09T09:26:37.409Z,94350.98
2018-05-09T09:29:05.506Z,94337.23
2018-05-09T09:31:33.465Z,94326.68
2018-05-09T09:34:01.431Z,94327.71
2018-05-09T09:36:29.488Z,94325.53
2018-05-09T09:38:57.892Z,94329.76
2018-05-09T09:41:25.971Z,94324.22
2018-05-09T09:43:53.955Z,94319.36
2018-05-09T09:46:21.878Z,94320.22
2018-05-09T09:48:49.868Z,94306.82
2018-05-09T09:51:17.875Z,94312.36
2018-05-09T09:53:45.897Z,94311.97
2018-05-09T09:56:13.880Z,94306.34
2018-05-09T09:58:41.901Z,94305.80
2018-05-09T10:01:09.864Z,94308.78
2018-05-09T10:03:37.859Z,94299.48
2018-05-09T10:06:05.794Z,94300.94
2018-05-09T10:08:33.869Z,94300.77
2018-05-09T10:11:01.845Z,94303.98
2018-05-09T10:13:29.895Z,94291.63
2018-05-09T10:15:57.903Z,94293.14
2018-05-09T10:18:25.946Z,94179.72
2018-05-09T10:20:53.965Z,94295.34
2018-05-09T10:23:22.088Z,94285.66
2018-05-09T10:25:50.137Z,94286.30
2018-05-09T10:28:18.231Z,94285.88
2018-05-09T10:30:46.264Z,94279.73
2018-05-09T10:33:14.335Z,94281.47
2018-05-09T10:35:42.352Z,94284.61
2018-05-09T10:38:10.455Z,94279.38
2018-05-09T10:40:38.868Z,94278.70
2018-05-09T10:43:06.902Z,94278.30
2018-05-09T10:45:34.979Z,94274.91
2018-05-09T10:48:03.040Z,94269.80
2018-05-09T10:50:30.987Z,94265.48
2018-05-09T10:52:58.923Z,94264.64
2018-05-09T10:55:26.893Z,94263.50
2018-05-09T10:57:54.934Z,94265.38
2018-05-09T11:00:22.955Z,94275.28
2018-05-09T11:02:50.989Z,94271.25
2018-05-09T11:05:19.067Z,94265.91
2018-05-09T11:07:47.063Z,94269.36
2018-05-09T11:10:15.067Z,94152.67
2018-05-09T11:12:43.078Z,94244.87
2018-05-09T11:15:11.100Z,94239.28
2018-05-09T11:17:39.183Z,94243.16
2018-05-09T11:20:07.178Z,94237.08
2018-05-09T11:22:35.251Z,94238.13
2018-05-09T11:25:03.231Z,94227.92
2018-05-09T11:27:31.235Z,94229.17
2018-05-09T11:29:59.385Z,94232.22
2018-05-09T11:32:27.501Z,94221.02
2018-05-09T11:34:55.537Z,94227.75
2018-05-09T11:37:23.582Z,94218.00
2018-05-09T11:39:51.588Z,94213.16
2018-05-09T11:42:19.916Z,94217.76
2018-05-09T11:44:47.860Z,94210.31
2018-05-09T11:47:15.879Z,94213.42
2018-05-09T11:49:43.947Z,94211.13
2018-05-09T11:52:12.015Z,94208.70
2018-05-09T11:54:40.029Z,94201.44
2018-05-09T11:57:08.066Z,94199.03
2018-05-09T11:59:36.146Z,94191.92
2018-05-09T12:02:04.247Z,94185.13
2018-05-09T12:04:32.368Z,94192.50
2018-05-09T12:07:00.381Z,94190.43
2018-05-09T12:09:28.346Z,94184.22
2018-05-09T12:11:56.497Z,94192.47
2018-05-09T12:14:24.563Z,94181.52
2018-05-09T12:16:52.603Z,94181.12
2018-05-09T12:19:20.756Z,94180.03
2018-05-09T12:21:48.897Z,94163.52
2018-05-09T12:24:17.050Z,94158.94
2018-05-09T12:26:45.494Z,94159.89
2018-05-09T12:29:13.582Z,94162.58
2018-05-09T12:31:41.676Z,94152.78
2018-05-09T12:34:09.885Z,94151.28
2018-05-09T12:36:38.005Z,94150.06
2018-05-09T12:39:06.100Z,94158.45
2018-05-09T12:41:34.263Z,94155.37
2018-05-09T12:44:02.789Z,94159.09
2018-05-09T12:46:30.832Z,94158.05
2018-05-09T12:48:59.835Z,94165.73
2018-05-09T12:51:27.905Z,94153.43
2018-05-09T12:53:55.934Z,94158.44
2018-05-09T12:56:23.999Z,94158.61
2018-05-09T12:58:52.022Z,94162.87
2018-05-09T13:01:20.074Z,94153.98
2018-05-09T13:03:48.126Z,94152.45
2018-05-09T13:06:16.262Z,94146.58
2018-05-09T13:08:44.930Z,94151.38
2018-05-09T13:11:13.043Z,94153.75
2018-05-09T13:13:41.042Z,94143.66
2018-05-09T13:16:09.057Z,94141.86
2018-05-09T13:18:36.903Z,94139.75
2018-05-09T13:21:04.948Z,94147.77
2018-05-09T13:23:32.987Z,94139.66
2018-05-09T13:26:01.042Z,94145.78
2018-05-09T13:28:29.090Z,94134.75
2018-05-09T13:30:57.168Z,94131.09
2018-05-09T13:33:25.193Z,94140.25
2018-05-09T13:35:53.283Z,94141.03
2018-05-09T13:38:21.291Z,94138.36
2018-05-09T13:40:49.408Z,94138.40
2018-05-09T13:43:17.431Z,94139.57
2018-05-09T13:45:45.763Z,94137.81
2018-05-09T13:48:13.789Z,94144.83
2018-05-09T13:50:41.854Z,94148.25
2018-05-09T13:53:09.962Z,94148.58
2018-05-09T14:42:18.995Z,94295.10
2018-05-09T14:44:47.720Z,94299.37
2018-05-09T14:47:17.358Z,94311.75
2018-05-09T14:49:45.787Z,94323.28
2018-05-09T14:52:14.353Z,94331.67
2018-05-09T14:54:42.645Z,94354.84
2018-05-09T14:57:11.311Z,94371.67
2018-05-09T14:59:39.799Z,94382.39
2018-05-09T15:02:08.018Z,94387.59
2018-05-09T15:04:36.443Z,94387.59
2018-05-09T15:07:04.753Z,94395.10
2018-05-09T15:09:33.193Z,94397.16
2018-05-09T15:12:01.853Z,94400.41
2018-05-09T15:14:30.405Z,94393.59
2018-05-09T15:16:58.506Z,94391.33
2018-05-09T15:19:26.935Z,94377.78
2018-05-09T15:21:55.393Z,94371.44
2018-05-09T15:24:23.895Z,94366.27
2018-05-09T15:26:52.473Z,94366.94
2018-05-09T15:29:21.041Z,94372.14
2018-05-09T15:31:49.365Z,94370.96
2018-05-09T15:34:18.006Z,94360.36
2018-05-09T15:36:46.487Z,94357.35
2018-05-09T15:39:14.889Z,94355.14
2018-05-09T15:41:43.447Z,94352.91
2018-05-09T15:44:12.225Z,94359.95
2018-05-09T15:46:40.527Z,94356.80
2018-05-09T15:49:09.010Z,94362.55
2018-05-09T15:51:37.571Z,94366.40
2018-05-09T15:54:05.913Z,94366.20
2018-05-09T15:56:34.526Z,94351.41
2018-05-09T15:59:02.906Z,94358.80
2018-05-09T16:01:31.407Z,94350.38
2018-05-09T16:03:59.870Z,94352.67
2018-05-09T16:06:28.318Z,94347.22
2018-05-09T16:08:56.723Z,94349.07
2018-05-09T16:11:25.315Z,94341.51
2018-05-09T16:13:53.620Z,94338.88
2018-05-09T16:16:22.305Z,94334.17
2018-05-09T16:18:50.751Z,94325.69
2018-05-09T16:21:19.063Z,94297.16
2018-05-09T16:23:47.516Z,94324.14
2018-05-09T16:26:15.949Z,94317.48
2018-05-09T16:28:44.382Z,94317.32
2018-05-09T16:31:13.160Z,94319.48
2018-05-09T16:33:41.702Z,94322.93
2018-05-09T16:36:10.313Z,94319.03
2018-05-09T16:38:39.007Z,94314.35
2018-05-09T16:41:07.909Z,94313.45
2018-05-09T16:43:36.578Z,94312.73
2018-05-09T16:46:04.827Z,94309.68
2018-05-09T16:48:33.435Z,94314.02
2018-05-09T16:51:02.023Z,94313.31
2018-05-09T16:53:30.324Z,94314.09
2018-05-09T16:55:58.983Z,94325.45
2018-05-09T16:58:27.663Z,94328.16
2018-05-09T17:00:56.059Z,94334.28
2018-05-09T17:03:24.851Z,94330.55
2018-05-09T17:05:53.514Z,94334.98
2018-05-09T17:08:21.965Z,94342.80
2018-05-09T17:10:50.515Z,94345.87
2018-05-09T17:13:19.166Z,94352.86
2018-05-09T17:15:47.744Z,94357.44
2018-05-09T17:18:16.189Z,94362.72
2018-05-09T17:20:44.720Z,94360.05
2018-05-09T17:23:13.388Z,94360.16
2018-05-09T17:25:41.636Z,94365.64
2018-05-09T17:28:10.154Z,94365.92
2018-05-09T17:30:38.748Z,94381.20
2018-05-09T17:33:07.060Z,94374.25
2018-05-09T17:35:35.596Z,94383.08
2018-05-09T17:38:04.173Z,94389.20
2018-05-09T17:40:32.786Z,94395.45
2018-05-09T17:43:01.256Z,94396.66
2018-05-09T17:45:29.818Z,94388.88
2018-05-09T17:47:58.111Z,94393.79
2018-05-09T17:50:27.594Z,94392.77
2018-05-09T17:52:56.006Z,94392.94
2018-05-09T17:55:24.241Z,94395.50
2018-05-09T17:57:52.654Z,94399.78
2018-05-09T18:00:21.124Z,94403.53
2018-05-09T18:02:49.486Z,94411.03
2018-05-09T18:05:17.974Z,94413.84
2018-05-09T18:07:46.343Z,94414.80
2018-05-09T18:10:14.557Z,94421.78
2018-05-09T18:12:43.034Z,94429.30
2018-05-09T18:15:11.413Z,94427.60
2018-05-09T18:17:39.956Z,94436.11
2018-05-09T18:20:08.382Z,94441.97
2018-05-09T18:22:36.883Z,94444.87
2018-05-09T18:25:05.194Z,94446.90
2018-05-09T18:27:33.738Z,94458.11
2018-05-09T18:30:02.079Z,94450.34
2018-05-09T18:32:30.625Z,94453.16
2018-05-09T18:34:59.022Z,94456.49
2018-05-09T18:37:27.595Z,94451.82
2018-05-09T18:39:56.105Z,94457.09
2018-05-09T18:42:24.882Z,94458.94
2018-05-09T18:44:52.821Z,94459.37
2018-05-09T18:47:20.873Z,94457.95
2018-05-09T18:49:48.907Z,94463.72
2018-05-09T18:52:16.993Z,94463.52
2018-05-09T18:54:45.295Z,94466.32
2018-05-09T18:57:13.263Z,94470.64
2018-05-09T18:59:41.640Z,94476.41
2018-05-09T19:02:10.037Z,94482.03
2018-05-09T19:04:38.732Z,94476.86
2018-05-09T19:07:07.027Z,94470.59
2018-05-09T19:09:35.483Z,94470.58
2018-05-09T19:12:03.665Z,94459.19
2018-05-09T19:14:32.042Z,94467.67
2018-05-09T19:17:00.118Z,94470.48
2018-05-09T19:19:28.374Z,94475.32
2018-05-09T19:21:57.066Z,94477.86
2018-05-09T19:24:25.553Z,94468.86
2018-05-09T19:26:53.829Z,94465.69
2018-05-09T19:29:22.244Z,94467.88
2018-05-09T19:31:50.699Z,94456.91
2018-05-09T19:34:19.292Z,94455.67
2018-05-09T19:36:47.758Z,94454.34
2018-05-09T19:39:16.217Z,94452.65
2018-05-09T19:41:44.981Z,94448.65
2018-05-09T19:44:13.505Z,94452.72
2018-05-09T19:46:42.072Z,94449.23
2018-05-09T19:49:10.549Z,94448.89
2018-05-09T19:51:38.838Z,94455.16
2018-05-09T19:54:07.307Z,94457.31
2018-05-09T19:56:36.184Z,94454.09
2018-05-09T19:59:04.525Z,94461.75
2018-05-09T20:01:33.372Z,94456.34
2018-05-09T20:04:02.146Z,94456.47
2018-05-09T20:06:30.735Z,94460.47
2018-05-09T20:08:59.337Z,94455.33
2018-05-09T20:11:28.002Z,94451.51
2018-05-09T20:13:56.743Z,94455.31
2018-05-09T20:16:25.022Z,94455.82
2018-05-09T20:18:53.344Z,94454.08
2018-05-09T20:21:21.907Z,94459.18
2018-05-09T20:23:50.657Z,94460.71
2018-05-09T20:26:19.445Z,94458.89
2018-05-09T20:28:53.394Z,94457.87
2018-05-09T20:31:39.464Z,94451.69
2018-05-09T20:34:08.016Z,94451.72
2018-05-09T20:36:36.359Z,94453.39
2018-05-09T20:39:04.977Z,94457.14
2018-05-09T20:41:33.079Z,94455.83
2018-05-09T20:44:01.558Z,94454.05
2018-05-09T20:46:29.729Z,94462.33
2018-05-09T20:48:57.752Z,94458.98
2018-05-09T20:51:38.091Z,94459.49
2018-05-09T20:54:06.410Z,94464.84
2018-05-09T20:56:35.063Z,94459.03
2018-05-09T20:59:03.630Z,94459.63
2018-05-09T21:01:43.466Z,94456.86
2018-05-09T21:04:11.542Z,94456.75
2018-05-09T21:06:39.593Z,94462.77
2018-05-09T21:09:07.737Z,94459.95
2018-05-09T21:11:36.346Z,94458.15
2018-05-09T21:14:04.974Z,94463.06
2018-05-09T21:16:33.543Z,94463.11
2018-05-09T21:19:01.987Z,94461.44
2018-05-09T21:21:30.725Z,94463.06
2018-05-09T21:23:58.822Z,94376.58
2018-05-09T21:26:26.827Z,94460.63
2018-05-09T21:28:54.852Z,94468.05
2018-05-09T21:31:22.886Z,94457.62
2018-05-09T21:33:50.917Z,94469.72
2018-05-09T21:36:19.101Z,94473.18
2018-05-09T21:38:47.081Z,94478.89
2018-05-09T21:41:15.143Z,94481.89
2018-05-09T21:43:43.162Z,94483.44
2018-05-09T21:46:11.223Z,94483.31
2018-05-09T21:48:39.235Z,94489.95
2018-05-09T21:51:07.222Z,94485.72
2018-05-09T21:53:35.264Z,94486.98
2018-05-09T21:56:03.386Z,94493.00
2018-05-09T21:58:31.326Z,94490.09
2018-05-09T22:00:59.442Z,94489.61
2018-05-09T22:03:27.404Z,94488.71
2018-05-09T22:05:55.431Z,94492.00
2018-05-09T22:08:23.515Z,94489.23
2018-05-09T22:10:51.682Z,94490.91
2018-05-09T22:13:19.747Z,94484.14
2018-05-09T22:15:48.269Z,94482.61
2018-05-09T22:18:17.052Z,94484.89
2018-05-09T22:20:45.483Z,94484.52
2018-05-09T22:23:14.024Z,94482.22
2018-05-09T22:25:42.047Z,94479.25
2018-05-09T22:28:10.066Z,94482.65
2018-05-09T22:30:38.063Z,94486.20
2018-05-09T22:33:06.094Z,94486.39
2018-05-09T22:35:34.088Z,94485.33
2018-05-09T22:38:02.078Z,94486.79
2018-05-09T22:40:30.090Z,94482.80
2018-05-09T22:42:58.173Z,94429.35
2018-05-09T22:45:26.183Z,94478.06
2018-05-09T22:47:54.192Z,94472.38
2018-05-09T22:50:22.175Z,94474.36
2018-05-09T22:52:50.191Z,94473.80
2018-05-09T22:55:18.207Z,94475.70
2018-05-09T22:57:46.250Z,94474.81
2018-05-09T23:00:14.350Z,94474.36
2018-05-09T23:02:42.601Z,94475.77
2018-05-09T23:05:10.604Z,94467.66
2018-05-09T23:07:38.623Z,94473.50
2018-05-09T23:10:06.661Z,94474.95
2018-05-09T23:12:34.642Z,94468.73
2018-05-09T23:15:02.765Z,94468.80
2018-05-09T23:17:30.762Z,94467.73
2018-05-09T23:19:58.723Z,94467.30
2018-05-09T23:22:26.755Z,94463.83
2018-05-09T23:24:54.874Z,94463.75
2018-05-09T23:27:22.911Z,94461.63
2018-05-09T23:29:50.898Z,94463.00
2018-05-09T23:32:19.003Z,94466.23
2018-05-09T23:34:47.020Z,94456.88
2018-05-09T23:37:14.985Z,94454.05
2018-05-09T23:39:43.009Z,94447.22
2018-05-09T23:42:11.049Z,94444.97
2018-05-09T23:44:39.666Z,94444.66
2018-05-09T23:47:08.100Z,94438.70
2018-05-09T23:49:36.796Z,94435.06
2018-05-09T23:52:05.317Z,94436.20
2018-05-09T23:54:33.749Z,94436.06
2018-05-09T23:57:02.200Z,94436.97
2018-05-09T23:59:30.521Z,94445.16
